This is the latest recevied weather packets stored in our database for station/object EA3GKP-7. If no packets are shown the sender has not sent any weather packets the latest 10 day(s).
| Time | Temp. | Humidity | Pressure | Rain* | Wind** | Luminosity | Snow |
|---|---|---|---|---|---|---|---|
| 1787661319 | 33.89° C | 42% | 1015 hPa | - | - | - | - |
| 1787661019 | 33.89° C | 40% | 1015 hPa | - | - | - | - |
| 1787660719 | 34.44° C | 39% | 1015.1 hPa | - | - | - | - |
| 1787660419 | 34.44° C | 36% | 1015.3 hPa | - | - | - | - |
| 1787660119 | 34.44° C | 40% | 1015 hPa | - | - | - | - |
| 1787659819 | 34.44° C | 40% | 1015.2 hPa | - | - | - | - |
| 1787659519 | 33.89° C | 41% | 1015.2 hPa | - | - | - | - |
| 1787659219 | 33.89° C | 39% | 1015.3 hPa | - | - | - | - |
| 1787658919 | 34.44° C | 39% | 1015.2 hPa | - | - | - | - |
| 1787658619 | 35° C | 36% | 1015.4 hPa | - | - | - | - |
| 1787658319 | 35.56° C | 33% | 1015.5 hPa | - | - | - | - |
| 1787658019 | 35.56° C | 35% | 1015.4 hPa | - | - | - | - |
| 1787657719 | 36.67° C | 32% | 1015.6 hPa | - | - | - | - |
| 1787657419 | 36.67° C | 30% | 1015.8 hPa | - | - | - | - |
| 1787657119 | 37.78° C | 28% | 1015.6 hPa | - | - | - | - |
| 1787656819 | 37.78° C | 28% | 1015.7 hPa | - | - | - | - |
| 1787656519 | 37.78° C | 29% | 1015.8 hPa | - | - | - | - |
| 1787656219 | 38.33° C | 29% | 1015.8 hPa | - | - | - | - |
| 1787655919 | 38.33° C | 29% | 1016 hPa | - | - | - | - |
| 1787655619 | 37.78° C | 29% | 1016 hPa | - | - | - | - |
| 1787655319 | 37.78° C | 29% | 1016 hPa | - | - | - | - |
| 1787655019 | 37.78° C | 30% | 1015.9 hPa | - | - | - | - |
| 1787654719 | 37.78° C | 30% | 1016 hPa | - | - | - | - |
| 1787654419 | 37.78° C | 29% | 1016.2 hPa | - | - | - | - |
| 1787654119 | 36.11° C | 31% | 1016 hPa | - | - | - | - |
* Rain since midnight (hover to see other rain measurements)
** Current wind speed in m/s (hover to see current wind gust speed)